createdAt,value
2023-05-23T00:04:17.329Z,4.10
2023-05-23T00:09:20.124Z,3.97
2023-05-23T00:14:23.890Z,3.80
2023-05-23T00:19:27.698Z,3.70
2023-05-23T00:24:30.188Z,4.05
2023-05-23T00:29:32.595Z,4.68
2023-05-23T00:34:35.011Z,4.18
2023-05-23T00:39:37.372Z,4.45
2023-05-23T00:44:40.463Z,4.75
2023-05-23T00:49:44.169Z,5.03
2023-05-23T00:54:47.635Z,4.20
2023-05-23T00:59:50.649Z,3.55
2023-05-23T01:04:55.381Z,3.53
2023-05-23T01:09:58.068Z,4.05
2023-05-23T01:15:13.536Z,4.28
2023-05-23T01:20:22.702Z,4.22
2023-05-23T01:25:59.657Z,3.40
2023-05-23T01:31:04.836Z,3.42
2023-05-23T01:36:09.636Z,3.50
2023-05-23T01:41:12.117Z,5.50
2023-05-23T01:46:17.206Z,5.65
2023-05-23T01:51:20.006Z,5.22
2023-05-23T01:56:23.961Z,4.75
2023-05-23T02:01:27.088Z,3.90
2023-05-23T02:06:30.022Z,3.35
2023-05-23T02:11:32.456Z,3.67
2023-05-23T02:16:36.841Z,3.45
2023-05-23T02:21:41.668Z,3.28
2023-05-23T02:26:44.638Z,3.85
2023-05-23T02:31:47.695Z,3.80
2023-05-23T02:36:52.336Z,3.75
2023-05-23T02:41:55.771Z,3.05
2023-05-23T02:46:58.710Z,3.45
2023-05-23T02:52:01.533Z,4.35
2023-05-23T02:57:05.879Z,4.47
2023-05-23T03:02:11.950Z,4.47
2023-05-23T03:07:27.520Z,4.85
2023-05-23T03:17:35.036Z,2.03
2023-05-23T03:22:37.564Z,2.03
2023-05-23T03:27:42.380Z,1.80
2023-05-23T03:32:45.568Z,1.85
2023-05-23T03:37:48.654Z,1.60
2023-05-23T03:43:04.711Z,2.00
2023-05-23T03:48:10.611Z,2.42
2023-05-23T03:53:15.307Z,2.35
2023-05-23T03:58:19.446Z,1.90
2023-05-23T04:03:26.797Z,2.00
2023-05-23T04:08:34.729Z,2.05
2023-05-23T04:13:43.557Z,1.88
2023-05-23T04:18:48.696Z,1.80
2023-05-23T04:23:51.370Z,2.13
2023-05-23T04:28:54.621Z,1.60
2023-05-23T04:33:58.697Z,2.00
2023-05-23T04:44:10.345Z,1.90
2023-05-23T04:49:17.749Z,1.45
2023-05-23T04:54:20.413Z,3.08
2023-05-23T04:59:24.106Z,2.60
2023-05-23T05:04:26.764Z,2.47
2023-05-23T05:09:31.514Z,2.92
2023-05-23T05:19:39.271Z,3.88
2023-05-23T05:24:42.440Z,15.00
2023-05-23T05:29:45.716Z,8.73
2023-05-23T05:34:51.645Z,6.40
2023-05-23T05:39:55.491Z,3.22
2023-05-23T05:44:59.477Z,2.33
2023-05-23T05:50:03.578Z,2.78
2023-05-23T05:55:09.060Z,2.58
2023-05-23T06:00:15.501Z,2.33
2023-05-23T06:05:31.176Z,2.28
2023-05-23T06:10:34.173Z,2.10
2023-05-23T06:15:37.697Z,2.50
2023-05-23T06:20:41.848Z,5.15
2023-05-23T06:25:48.963Z,2.97
2023-05-23T06:30:51.615Z,3.38
2023-05-23T06:35:54.383Z,3.53
2023-05-23T06:40:57.953Z,4.80
2023-05-23T06:46:01.559Z,4.95
2023-05-23T06:51:05.889Z,6.45
2023-05-23T06:56:15.697Z,6.47
2023-05-23T07:01:37.103Z,7.03
2023-05-23T07:06:42.968Z,7.30
2023-05-23T07:11:45.544Z,8.82
2023-05-23T07:16:49.967Z,8.27
2023-05-23T07:21:53.389Z,8.43
2023-05-23T07:26:58.199Z,8.15
2023-05-23T07:32:02.604Z,6.30
2023-05-23T07:37:05.360Z,6.05
2023-05-23T07:42:15.458Z,6.63
2023-05-23T07:47:18.097Z,7.57
2023-05-23T07:52:22.360Z,7.18
2023-05-23T07:57:26.549Z,7.03
2023-05-23T08:02:29.661Z,7.47
2023-05-23T08:07:32.327Z,7.35
2023-05-23T08:12:38.560Z,7.97
2023-05-23T08:17:51.068Z,7.40
2023-05-23T08:22:58.421Z,7.82
2023-05-23T08:28:03.525Z,7.07
2023-05-23T08:33:24.910Z,7.45
2023-05-23T08:38:31.182Z,8.00
2023-05-23T08:43:45.200Z,6.80
2023-05-23T08:48:57.389Z,7.20
2023-05-23T08:54:03.679Z,7.63
2023-05-23T08:59:07.797Z,7.88
2023-05-23T09:04:12.968Z,7.63
2023-05-23T09:09:29.606Z,8.88
2023-05-23T09:14:39.888Z,9.40
2023-05-23T09:25:18.792Z,9.10
2023-05-23T09:30:23.868Z,9.57
2023-05-23T09:40:58.847Z,8.90
2023-05-23T09:46:14.564Z,8.32
2023-05-23T09:51:22.508Z,8.52
2023-05-23T09:56:30.632Z,8.77
2023-05-23T10:07:29.170Z,9.38
2023-05-23T10:13:01.945Z,12.57
2023-05-23T10:18:12.322Z,11.70
2023-05-23T10:23:16.920Z,12.48
2023-05-23T10:28:23.463Z,13.57
2023-05-23T10:33:36.970Z,14.45
2023-05-23T10:39:03.094Z,12.63
2023-05-23T10:44:29.686Z,11.57
2023-05-23T10:55:28.100Z,11.15
2023-05-23T11:05:57.179Z,8.73
2023-05-23T11:11:23.900Z,8.10
2023-05-23T11:16:43.392Z,7.88
2023-05-23T11:21:47.561Z,7.35
2023-05-23T11:27:03.214Z,7.22
2023-05-23T11:32:17.789Z,7.18
2023-05-23T11:37:27.197Z,6.55
2023-05-23T11:42:36.821Z,6.95
2023-05-23T11:47:43.795Z,6.57
2023-05-23T11:53:00.698Z,7.10
2023-05-23T11:58:34.092Z,8.88
2023-05-23T12:03:47.888Z,7.15
2023-05-23T12:09:03.801Z,6.95
2023-05-23T12:19:29.975Z,8.50
2023-05-23T12:24:33.350Z,7.78
2023-05-23T12:29:38.461Z,8.10
2023-05-23T12:34:43.357Z,7.03
2023-05-23T12:44:53.592Z,7.35
2023-05-23T12:49:56.448Z,7.30
2023-05-23T12:54:59.904Z,7.82
2023-05-23T13:00:03.031Z,7.75
2023-05-23T13:05:10.488Z,7.82
2023-05-23T13:10:14.164Z,8.05
2023-05-23T13:15:19.045Z,8.73
2023-05-23T13:20:22.746Z,9.07
2023-05-23T13:25:26.992Z,8.70
2023-05-23T13:30:29.959Z,10.55
2023-05-23T13:35:32.442Z,8.70
2023-05-23T13:40:34.910Z,8.75
2023-05-23T13:45:38.278Z,34.60
2023-05-23T13:50:43.293Z,9.88
2023-05-23T14:00:49.824Z,9.40
2023-05-23T14:05:53.785Z,9.43
2023-05-23T14:10:56.767Z,9.07
2023-05-23T14:16:00.577Z,9.25
2023-05-23T14:21:03.765Z,9.35
2023-05-23T14:26:06.888Z,9.50
2023-05-23T14:31:10.211Z,9.10
2023-05-23T14:36:13.349Z,11.57
2023-05-23T14:41:16.353Z,9.63
2023-05-23T14:46:20.095Z,9.93
2023-05-23T14:51:35.469Z,11.63
2023-05-23T14:56:47.789Z,9.43
2023-05-23T15:01:51.123Z,8.95
2023-05-23T15:06:53.622Z,12.60
2023-05-23T15:11:56.574Z,9.65
2023-05-23T15:17:08.042Z,9.43
2023-05-23T15:22:18.442Z,9.98
2023-05-23T15:27:25.521Z,10.20
2023-05-23T15:32:30.236Z,10.50
2023-05-23T15:37:33.905Z,10.30
2023-05-23T15:42:37.000Z,10.60
2023-05-23T15:47:39.632Z,12.48
2023-05-23T15:52:43.210Z,11.90
2023-05-23T15:57:45.760Z,10.50
2023-05-23T16:02:48.388Z,11.38
2023-05-23T16:07:51.882Z,21.13
2023-05-23T16:12:54.483Z,12.73
2023-05-23T16:17:57.076Z,11.63
2023-05-23T16:22:59.571Z,12.00
2023-05-23T16:28:02.964Z,12.10
2023-05-23T16:33:05.627Z,11.68
2023-05-23T16:38:08.295Z,12.20
2023-05-23T16:43:10.666Z,12.73
2023-05-23T16:48:13.199Z,12.13
2023-05-23T16:53:15.949Z,13.02
2023-05-23T16:58:21.128Z,12.52
2023-05-23T17:03:24.561Z,13.88
2023-05-23T17:08:27.091Z,14.90
2023-05-23T17:13:29.616Z,12.95
2023-05-23T17:18:32.390Z,14.85
2023-05-23T17:23:34.912Z,14.38
2023-05-23T17:28:37.414Z,16.77
2023-05-23T17:33:40.313Z,16.95
2023-05-23T17:38:43.023Z,15.65
2023-05-23T17:43:45.386Z,14.48
2023-05-23T17:48:48.990Z,15.45
2023-05-23T17:53:53.984Z,13.32
2023-05-23T18:03:59.373Z,12.05
2023-05-23T18:09:02.154Z,13.80
2023-05-23T18:14:04.717Z,12.00
2023-05-23T18:19:07.269Z,11.82
2023-05-23T18:24:12.044Z,10.88
2023-05-23T18:29:14.499Z,11.00
2023-05-23T18:34:17.370Z,10.70
2023-05-23T18:39:19.972Z,24.83
2023-05-23T18:44:23.759Z,20.25
2023-05-23T18:49:26.657Z,23.10
2023-05-23T18:54:29.176Z,15.73
2023-05-23T18:59:32.446Z,12.52
2023-05-23T19:04:35.439Z,11.68
2023-05-23T19:09:37.963Z,9.98
2023-05-23T19:14:40.474Z,9.60
2023-05-23T19:19:43.184Z,10.13
2023-05-23T19:24:45.837Z,10.27
2023-05-23T19:29:48.289Z,10.13
2023-05-23T19:34:50.810Z,10.10
2023-05-23T19:39:53.357Z,11.63
2023-05-23T19:44:55.858Z,9.65
2023-05-23T19:49:58.387Z,9.38
2023-05-23T19:55:03.500Z,11.25
2023-05-23T20:00:09.941Z,11.27
2023-05-23T20:05:12.414Z,10.88
2023-05-23T20:10:15.437Z,11.55
2023-05-23T20:15:24.523Z,12.65
2023-05-23T20:20:35.800Z,14.00
2023-05-23T20:25:38.261Z,13.98
2023-05-23T20:30:41.245Z,14.02
2023-05-23T20:35:48.520Z,12.80
2023-05-23T20:40:52.490Z,14.88
2023-05-23T20:46:01.806Z,13.30
2023-05-23T20:51:06.717Z,13.75
2023-05-23T20:56:11.847Z,14.35
2023-05-23T21:06:18.774Z,14.35
2023-05-23T21:11:23.106Z,14.38
2023-05-23T21:16:27.261Z,14.07
2023-05-23T21:21:30.165Z,13.63
2023-05-23T21:26:33.594Z,14.13
2023-05-23T21:31:41.598Z,13.52
2023-05-23T21:36:45.062Z,13.50
2023-05-23T21:41:47.865Z,12.70
2023-05-23T21:46:50.954Z,12.82
2023-05-23T21:51:53.368Z,14.20
2023-05-23T21:56:55.754Z,13.40
2023-05-23T22:01:58.253Z,12.40
2023-05-23T22:07:01.318Z,14.90
2023-05-23T22:12:04.082Z,13.00
2023-05-23T22:17:07.185Z,13.18
2023-05-23T22:22:10.056Z,14.02
2023-05-23T22:27:12.587Z,14.05
2023-05-23T22:32:17.119Z,12.40
2023-05-23T22:37:20.976Z,13.30
2023-05-23T22:42:24.926Z,13.45
2023-05-23T22:47:29.407Z,12.35
2023-05-23T22:52:35.247Z,13.10
2023-05-23T22:57:38.383Z,14.18
2023-05-23T23:02:41.048Z,16.45
2023-05-23T23:07:44.590Z,16.52
2023-05-23T23:12:47.367Z,16.77
2023-05-23T23:17:49.900Z,18.80
2023-05-23T23:22:53.002Z,22.27
2023-05-23T23:27:56.343Z,23.00
2023-05-23T23:32:58.748Z,24.00
2023-05-23T23:38:01.190Z,28.95
2023-05-23T23:43:03.646Z,33.00
2023-05-23T23:48:06.110Z,32.17
2023-05-23T23:53:08.813Z,32.42
2023-05-23T23:58:11.498Z,30.13
